createdAt,value
2022-11-30T00:01:00.312Z,96487.63
2022-11-30T00:03:29.199Z,96474.63
2022-11-30T00:05:56.791Z,96476.31
2022-11-30T00:08:26.802Z,96475.72
2022-11-30T00:10:54.335Z,96481.41
2022-11-30T00:13:21.871Z,96483.19
2022-11-30T00:15:49.939Z,96486.81
2022-11-30T00:18:17.812Z,96486.22
2022-11-30T00:20:46.698Z,96472.38
2022-11-30T00:23:14.244Z,96483.69
2022-11-30T00:25:41.793Z,96482.41
2022-11-30T00:28:09.391Z,96491.69
2022-11-30T00:30:37.011Z,96495.78
2022-11-30T00:33:04.599Z,96503.28
2022-11-30T00:35:32.826Z,96497.50
2022-11-30T00:38:03.992Z,96503.22
2022-11-30T00:40:31.508Z,96503.28
2022-11-30T00:42:59.041Z,96503.91
2022-11-30T00:45:26.593Z,96502.44
2022-11-30T00:47:54.110Z,96501.28
2022-11-30T00:50:21.606Z,96503.38
2022-11-30T00:52:49.116Z,96503.09
2022-11-30T00:55:18.157Z,96499.28
2022-11-30T00:57:45.679Z,96503.38
2022-11-30T01:00:13.775Z,96499.50
2022-11-30T01:02:41.324Z,96513.19
2022-11-30T01:05:09.347Z,96511.41
2022-11-30T01:07:36.901Z,96502.38
2022-11-30T01:10:05.110Z,96505.50
2022-11-30T01:12:33.972Z,96500.03
2022-11-30T01:15:01.519Z,96504.00
2022-11-30T01:17:29.042Z,96496.75
2022-11-30T01:19:58.898Z,96495.06
2022-11-30T01:22:26.455Z,96502.19
2022-11-30T01:24:54.022Z,96493.84
2022-11-30T01:27:21.522Z,96506.25
2022-11-30T01:29:50.399Z,96506.66
2022-11-30T01:32:17.920Z,96510.72
2022-11-30T01:34:46.006Z,96512.22
2022-11-30T01:37:13.780Z,96512.69
2022-11-30T01:39:41.314Z,96503.88
2022-11-30T01:42:15.461Z,96516.03
2022-11-30T01:44:53.398Z,96506.22
2022-11-30T01:47:25.600Z,96514.59
2022-11-30T01:49:57.379Z,96517.84
2022-11-30T01:52:30.132Z,96514.41
2022-11-30T01:55:03.272Z,96516.94
2022-11-30T01:57:35.693Z,96513.91
2022-11-30T02:00:18.250Z,96516.53
2022-11-30T02:02:52.435Z,96511.66
2022-11-30T02:05:21.259Z,96519.16
2022-11-30T02:07:48.977Z,96509.63
2022-11-30T02:10:19.303Z,96515.34
2022-11-30T02:13:08.165Z,96514.66
2022-11-30T02:15:46.043Z,96518.72
2022-11-30T02:18:16.214Z,96514.03
2022-11-30T02:21:03.247Z,96514.88
2022-11-30T02:24:05.600Z,96522.22
2022-11-30T02:27:12.173Z,96517.00
2022-11-30T02:29:43.947Z,96520.31
2022-11-30T02:32:16.307Z,96518.94
2022-11-30T02:34:46.828Z,96513.81
2022-11-30T02:37:16.442Z,96519.44
2022-11-30T02:39:44.667Z,96524.91
2022-11-30T02:42:13.468Z,96514.69
2022-11-30T02:44:44.307Z,96515.13
2022-11-30T02:47:20.612Z,96517.66
2022-11-30T02:49:55.177Z,96519.16
2022-11-30T02:52:27.318Z,96521.09
2022-11-30T02:54:59.410Z,96516.47
2022-11-30T02:57:28.988Z,96514.81
2022-11-30T02:59:58.747Z,96514.34
2022-11-30T03:02:26.320Z,96511.78
2022-11-30T03:04:53.856Z,96508.63
2022-11-30T03:07:21.413Z,96514.38
2022-11-30T03:09:48.990Z,96518.34
2022-11-30T03:12:16.525Z,96517.16
2022-11-30T03:14:44.293Z,96518.13
2022-11-30T03:17:13.454Z,96525.75
2022-11-30T03:19:41.074Z,96528.00
2022-11-30T03:22:08.749Z,96531.75
2022-11-30T03:24:36.417Z,96525.25
2022-11-30T03:27:04.049Z,96532.44
2022-11-30T03:29:31.574Z,96531.84
2022-11-30T03:31:59.170Z,96541.75
2022-11-30T03:34:28.588Z,96542.34
2022-11-30T03:36:56.305Z,96548.63
2022-11-30T03:39:24.315Z,96542.72
2022-11-30T03:41:51.990Z,96550.47
2022-11-30T03:44:20.104Z,96546.34
2022-11-30T03:46:47.909Z,96567.84
2022-11-30T03:49:15.500Z,96561.81
2022-11-30T03:51:44.366Z,96556.44
2022-11-30T03:54:11.872Z,96554.50
2022-11-30T03:56:39.396Z,96553.06
2022-11-30T03:59:06.954Z,96559.13
2022-11-30T04:01:36.206Z,96553.44
2022-11-30T04:04:04.040Z,96548.88
2022-11-30T04:06:31.558Z,96546.09
2022-11-30T04:09:00.648Z,96552.25
2022-11-30T04:11:28.159Z,96542.00
2022-11-30T04:13:55.777Z,96536.03
2022-11-30T04:16:23.384Z,96536.84
2022-11-30T04:18:50.960Z,96545.78
2022-11-30T04:21:18.982Z,96544.38
2022-11-30T04:23:46.507Z,96541.75
2022-11-30T04:26:16.981Z,96545.47
2022-11-30T04:28:44.715Z,96538.16
2022-11-30T04:31:12.933Z,96540.69
2022-11-30T04:33:40.562Z,96536.50
2022-11-30T04:36:16.537Z,96542.06
2022-11-30T04:38:44.063Z,96562.06
2022-11-30T04:41:11.603Z,96547.81
2022-11-30T04:43:40.481Z,96542.50
2022-11-30T04:46:08.267Z,96550.97
2022-11-30T04:48:36.188Z,96547.16
2022-11-30T04:51:05.789Z,96545.00
2022-11-30T04:53:33.660Z,96545.34
2022-11-30T04:56:05.727Z,96552.13
2022-11-30T04:58:33.297Z,96545.00
2022-11-30T05:01:02.245Z,96544.94
2022-11-30T05:03:29.768Z,96543.41
2022-11-30T05:05:57.318Z,96547.88
2022-11-30T05:08:24.940Z,96547.13
2022-11-30T05:10:53.976Z,96552.09
2022-11-30T05:13:22.413Z,96556.75
2022-11-30T05:15:50.055Z,96555.41
2022-11-30T05:18:19.047Z,96558.25
2022-11-30T05:20:48.888Z,96553.88
2022-11-30T05:23:17.120Z,96560.34
2022-11-30T05:25:45.147Z,96553.56
2022-11-30T05:28:12.908Z,96552.84
2022-11-30T05:30:41.307Z,96567.09
2022-11-30T05:33:09.445Z,96566.94
2022-11-30T05:35:38.545Z,96565.19
2022-11-30T05:38:06.240Z,96557.16
2022-11-30T05:40:33.903Z,96565.78
2022-11-30T05:43:02.600Z,96571.75
2022-11-30T05:45:30.851Z,96567.88
2022-11-30T05:47:58.447Z,96569.91
2022-11-30T05:50:25.950Z,96562.59
2022-11-30T05:52:56.223Z,96581.31
2022-11-30T05:55:24.229Z,96582.47
2022-11-30T05:57:51.781Z,96585.03
2022-11-30T06:00:20.645Z,96581.34
2022-11-30T06:02:48.624Z,96581.09
2022-11-30T06:05:16.287Z,96584.38
2022-11-30T06:07:43.897Z,96582.81
2022-11-30T06:10:13.750Z,96582.25
2022-11-30T06:12:41.258Z,96590.78
2022-11-30T06:15:09.394Z,96588.72
2022-11-30T06:17:37.870Z,96589.88
2022-11-30T06:20:05.927Z,96583.69
2022-11-30T06:22:33.660Z,96585.81
2022-11-30T06:25:01.182Z,96588.22
2022-11-30T06:27:32.516Z,96595.88
2022-11-30T06:30:00.154Z,96599.94
2022-11-30T06:32:27.740Z,96596.63
2022-11-30T06:34:55.320Z,96595.09
2022-11-30T06:37:22.843Z,96596.38
2022-11-30T06:40:05.863Z,96602.78
2022-11-30T06:42:36.171Z,96601.22
2022-11-30T06:45:04.781Z,96609.16
2022-11-30T06:47:32.571Z,96599.47
2022-11-30T06:50:00.144Z,96609.81
2022-11-30T06:52:27.658Z,96600.00
2022-11-30T06:54:55.159Z,96607.28
2022-11-30T06:57:26.742Z,96608.22
2022-11-30T06:59:55.692Z,96602.56
2022-11-30T07:02:23.413Z,96609.03
2022-11-30T07:04:51.365Z,96609.09
2022-11-30T07:07:18.918Z,96620.19
2022-11-30T07:09:46.541Z,96614.59
2022-11-30T07:12:14.162Z,96619.22
2022-11-30T07:14:41.688Z,96609.53
2022-11-30T07:17:10.534Z,96612.84
2022-11-30T07:19:38.032Z,96617.72
2022-11-30T07:22:05.560Z,96613.25
2022-11-30T07:24:51.089Z,96603.81
2022-11-30T07:27:18.750Z,96603.72
2022-11-30T07:29:48.800Z,96620.03
2022-11-30T07:32:17.650Z,96610.59
2022-11-30T07:34:45.378Z,96603.78
2022-11-30T07:37:13.094Z,96610.63
2022-11-30T07:39:40.657Z,96607.78
2022-11-30T07:42:08.233Z,96618.66
2022-11-30T07:44:35.839Z,96617.94
2022-11-30T07:47:03.356Z,96620.16
2022-11-30T07:49:32.249Z,96620.59
2022-11-30T07:51:59.737Z,96623.78
2022-11-30T07:54:27.719Z,96618.31
2022-11-30T07:56:55.195Z,96620.81
2022-11-30T07:59:22.779Z,96624.41
2022-11-30T08:01:50.422Z,96632.72
2022-11-30T08:04:18.122Z,96632.19
2022-11-30T08:06:47.052Z,96630.03
2022-11-30T08:09:19.338Z,96636.13
2022-11-30T08:11:49.816Z,96637.59
2022-11-30T08:14:17.460Z,96636.66
2022-11-30T08:16:45.077Z,96633.25
2022-11-30T08:19:12.632Z,96639.41
2022-11-30T08:21:40.160Z,96654.22
2022-11-30T08:24:12.321Z,96638.38
2022-11-30T08:26:39.915Z,96644.25
2022-11-30T08:29:07.631Z,96650.81
2022-11-30T08:31:36.903Z,96646.13
2022-11-30T08:34:06.097Z,96646.44
2022-11-30T08:36:34.730Z,96651.97
2022-11-30T08:39:05.085Z,96649.63
2022-11-30T08:41:35.725Z,96646.69
2022-11-30T08:44:03.389Z,96655.06
2022-11-30T08:49:23.414Z,96650.25
2022-11-30T08:54:42.382Z,96652.75
2022-11-30T08:57:11.385Z,96652.13
2022-11-30T08:59:38.924Z,96659.13
2022-11-30T09:02:06.631Z,96665.69
2022-11-30T09:04:34.233Z,96665.75
2022-11-30T09:07:01.768Z,96670.88
2022-11-30T09:09:29.295Z,96676.28
2022-11-30T09:11:56.808Z,96675.66
2022-11-30T09:14:25.661Z,96680.19
2022-11-30T09:16:54.319Z,96681.19
2022-11-30T09:19:22.180Z,96681.97
2022-11-30T09:21:51.884Z,96693.88
2022-11-30T09:24:20.293Z,96683.38
2022-11-30T09:26:48.263Z,96686.81
2022-11-30T09:29:15.812Z,96680.00
2022-11-30T09:31:44.686Z,96681.81
2022-11-30T09:34:13.114Z,96679.41
2022-11-30T09:36:40.653Z,96668.88
2022-11-30T09:39:10.610Z,96675.81
2022-11-30T09:42:05.746Z,96681.19
2022-11-30T09:44:40.691Z,96677.28
2022-11-30T09:47:27.506Z,96671.19
2022-11-30T09:49:59.044Z,96671.38
2022-11-30T09:52:33.904Z,96673.81
2022-11-30T09:55:06.455Z,96678.09
2022-11-30T09:57:43.924Z,96667.78
2022-11-30T10:00:15.088Z,96667.69
2022-11-30T10:02:44.963Z,96669.66
2022-11-30T10:05:17.649Z,96664.38
2022-11-30T10:07:59.063Z,96669.91
2022-11-30T10:10:36.379Z,96668.25
2022-11-30T10:13:17.224Z,96668.84
2022-11-30T10:15:58.768Z,96661.31
2022-11-30T10:18:37.899Z,96668.03
2022-11-30T10:21:23.766Z,96667.22
2022-11-30T10:24:01.946Z,96671.38
2022-11-30T10:26:35.218Z,96661.75
2022-11-30T10:29:13.260Z,96667.22
2022-11-30T10:31:43.903Z,96667.41
2022-11-30T10:34:21.595Z,96672.66
2022-11-30T10:36:54.785Z,96667.19
2022-11-30T10:39:27.898Z,96669.94
2022-11-30T10:42:01.147Z,96664.03
2022-11-30T10:44:32.951Z,96660.72
2022-11-30T10:47:03.829Z,96666.84
2022-11-30T10:49:34.048Z,96659.31
2022-11-30T10:52:05.754Z,96653.41
2022-11-30T10:54:36.011Z,96660.13
2022-11-30T10:57:05.539Z,96654.81
2022-11-30T10:59:41.117Z,96660.75
2022-11-30T11:02:35.605Z,96641.72
2022-11-30T11:05:26.457Z,96647.88
2022-11-30T11:08:05.801Z,96648.72
2022-11-30T11:10:36.444Z,96647.56
2022-11-30T11:13:05.851Z,96650.53
2022-11-30T11:15:35.431Z,96649.25
2022-11-30T11:18:23.672Z,96656.34
2022-11-30T11:21:05.907Z,96648.69
2022-11-30T11:23:36.427Z,96636.47
2022-11-30T11:26:05.574Z,96639.81
2022-11-30T11:28:34.915Z,96642.91
2022-11-30T11:31:17.866Z,96639.22
2022-11-30T11:33:51.952Z,96641.31
2022-11-30T11:36:27.076Z,96629.53
2022-11-30T11:38:54.627Z,96628.47
2022-11-30T11:41:26.097Z,96627.41
2022-11-30T11:44:01.436Z,96635.09
2022-11-30T11:46:29.894Z,96616.41
2022-11-30T11:48:59.548Z,96630.31
2022-11-30T11:51:34.082Z,96621.19
2022-11-30T11:54:06.468Z,96627.41
2022-11-30T11:56:38.080Z,96622.56
2022-11-30T11:59:16.243Z,96620.13
2022-11-30T12:01:51.461Z,96625.50
2022-11-30T12:04:37.282Z,96630.97
2022-11-30T12:07:18.045Z,96626.59
2022-11-30T12:10:00.790Z,96630.50
2022-11-30T12:12:28.859Z,96626.97
2022-11-30T12:14:57.356Z,96635.63
2022-11-30T12:17:38.867Z,96634.13
2022-11-30T12:20:18.121Z,96643.94
2022-11-30T12:23:05.090Z,96639.00
2022-11-30T12:25:37.201Z,96643.75
2022-11-30T12:28:17.994Z,96644.50
2022-11-30T12:30:56.728Z,96638.41
2022-11-30T12:33:35.951Z,96640.84
2022-11-30T12:36:09.629Z,96631.03
2022-11-30T12:38:48.746Z,96643.44
2022-11-30T12:41:32.794Z,96640.00
2022-11-30T12:44:15.739Z,96642.59
2022-11-30T12:46:50.373Z,96639.03
2022-11-30T12:49:40.019Z,96634.84
2022-11-30T12:52:25.824Z,96648.13
2022-11-30T12:55:05.884Z,96642.38
2022-11-30T12:57:37.906Z,96647.63
2022-11-30T13:00:11.979Z,96641.97
2022-11-30T13:03:07.012Z,96652.13
2022-11-30T13:05:39.692Z,96651.41
2022-11-30T13:08:20.045Z,96649.94
2022-11-30T13:10:52.628Z,96648.28
2022-11-30T13:13:25.437Z,96651.03
2022-11-30T13:15:53.303Z,96647.00
2022-11-30T13:18:23.078Z,96645.53
2022-11-30T13:20:57.344Z,96638.16
2022-11-30T13:23:35.837Z,96644.22
2022-11-30T13:26:13.576Z,96641.16
2022-11-30T13:28:53.867Z,96646.84
2022-11-30T13:31:25.934Z,96642.16
2022-11-30T13:33:59.803Z,96643.94
2022-11-30T13:36:32.811Z,96644.50
2022-11-30T13:39:31.434Z,96647.69
2022-11-30T13:42:26.205Z,96639.28
2022-11-30T13:44:54.317Z,96639.94
2022-11-30T13:47:30.048Z,96652.81
2022-11-30T13:50:00.447Z,96644.44
2022-11-30T13:53:10.778Z,96643.75
2022-11-30T13:55:51.281Z,96655.44
2022-11-30T13:58:21.471Z,96652.53
2022-11-30T14:01:02.985Z,96652.03
2022-11-30T14:03:32.337Z,96649.19
2022-11-30T14:06:01.149Z,96648.75
2022-11-30T14:08:35.895Z,96649.06
2022-11-30T14:11:49.303Z,96649.22
2022-11-30T14:14:47.080Z,96662.31
2022-11-30T14:17:18.771Z,96657.25
2022-11-30T14:19:47.839Z,96657.94
2022-11-30T14:22:16.210Z,96654.34
2022-11-30T14:24:47.531Z,96658.41
2022-11-30T14:27:18.520Z,96658.00
2022-11-30T14:29:53.233Z,96663.66
2022-11-30T14:32:27.929Z,96665.06
2022-11-30T14:35:02.036Z,96659.31
2022-11-30T14:37:34.748Z,96660.88
2022-11-30T14:40:03.726Z,96661.06
2022-11-30T14:42:32.894Z,96663.59
2022-11-30T14:45:02.356Z,96665.41
2022-11-30T14:47:32.120Z,96666.19
2022-11-30T14:50:02.881Z,96672.03
2022-11-30T14:52:50.770Z,96671.03
2022-11-30T14:55:27.867Z,96660.72
2022-11-30T14:58:06.918Z,96663.06
2022-11-30T15:00:40.371Z,96667.53
2022-11-30T15:03:20.578Z,96669.72
2022-11-30T15:05:52.065Z,96660.78
2022-11-30T15:08:20.873Z,96666.97
2022-11-30T15:10:49.088Z,96667.63
2022-11-30T15:13:19.628Z,96666.38
2022-11-30T15:15:53.916Z,96671.00
2022-11-30T15:18:22.766Z,96665.97
2022-11-30T15:20:54.848Z,96673.06
2022-11-30T15:23:22.917Z,96672.84
2022-11-30T15:25:54.788Z,96668.03
2022-11-30T15:28:24.354Z,96667.03
2022-11-30T15:30:59.290Z,96667.97
2022-11-30T15:33:32.738Z,96668.75
2022-11-30T15:38:52.664Z,96663.97
2022-11-30T15:41:22.421Z,96674.34
2022-11-30T15:43:53.295Z,96670.91
2022-11-30T15:46:33.575Z,96670.50
2022-11-30T15:49:14.294Z,96670.28
2022-11-30T15:51:44.424Z,96663.88
2022-11-30T15:54:12.196Z,96674.78
2022-11-30T15:56:39.752Z,96679.78
2022-11-30T15:59:21.299Z,96675.59
2022-11-30T16:02:01.934Z,96677.06
2022-11-30T16:04:30.784Z,96679.59
2022-11-30T16:06:58.352Z,96679.59
2022-11-30T16:09:32.363Z,96681.41
2022-11-30T16:12:01.514Z,96683.78
2022-11-30T16:14:29.464Z,96677.41
2022-11-30T16:17:00.629Z,96684.00
2022-11-30T16:19:30.362Z,96680.44
2022-11-30T16:21:57.889Z,96683.38
2022-11-30T16:24:25.402Z,96684.53
2022-11-30T16:26:52.931Z,96684.22
2022-11-30T16:29:20.704Z,96678.06
2022-11-30T16:31:48.285Z,96683.38
2022-11-30T16:34:17.217Z,96678.34
2022-11-30T16:36:44.748Z,96679.16
2022-11-30T16:39:13.258Z,96679.41
2022-11-30T16:41:40.794Z,96678.81
2022-11-30T16:44:14.214Z,96682.31
2022-11-30T16:46:41.898Z,96690.50
2022-11-30T16:49:09.445Z,96690.50
2022-11-30T16:51:38.434Z,96682.53
2022-11-30T16:54:06.690Z,96683.78
2022-11-30T16:56:34.271Z,96684.00
2022-11-30T16:59:01.781Z,96687.09
2022-11-30T17:01:35.937Z,96694.03
2022-11-30T17:04:08.159Z,96700.91
2022-11-30T17:06:35.662Z,96692.47
2022-11-30T17:09:04.839Z,96697.38
2022-11-30T17:11:35.778Z,96693.63
2022-11-30T17:14:03.927Z,96693.00
2022-11-30T17:16:31.584Z,96699.28
2022-11-30T17:18:59.107Z,96699.34
2022-11-30T17:21:29.284Z,96706.81
2022-11-30T17:23:57.059Z,96707.13
2022-11-30T17:26:26.447Z,96707.34
2022-11-30T17:28:54.339Z,96711.00
2022-11-30T17:31:22.786Z,96718.63
2022-11-30T17:33:50.616Z,96723.34
2022-11-30T17:36:18.959Z,96720.41
2022-11-30T17:38:46.740Z,96719.94
2022-11-30T17:41:19.351Z,96723.72
2022-11-30T17:43:48.990Z,96727.50
2022-11-30T17:46:18.774Z,96730.75
2022-11-30T17:48:46.721Z,96728.97
2022-11-30T17:51:18.449Z,96725.47
2022-11-30T17:53:46.104Z,96724.19
2022-11-30T17:56:15.564Z,96728.16
2022-11-30T17:58:44.821Z,96727.56
2022-11-30T18:01:17.551Z,96723.78
2022-11-30T18:03:45.288Z,96729.81
2022-11-30T18:06:13.176Z,96727.78
2022-11-30T18:08:40.720Z,96725.69
2022-11-30T18:11:09.819Z,96731.13
2022-11-30T18:13:37.327Z,96734.88
2022-11-30T18:16:10.455Z,96730.09
2022-11-30T18:18:44.210Z,96731.66
2022-11-30T18:21:16.515Z,96737.84
2022-11-30T18:23:44.025Z,96741.59
2022-11-30T18:26:13.735Z,96734.66
2022-11-30T18:28:41.639Z,96743.28
2022-11-30T18:31:09.581Z,96737.16
2022-11-30T18:33:39.104Z,96744.59
2022-11-30T18:36:07.666Z,96738.81
2022-11-30T18:38:37.937Z,96745.66
2022-11-30T18:41:06.861Z,96740.75
2022-11-30T18:43:34.689Z,96739.97
2022-11-30T18:46:06.142Z,96737.91
2022-11-30T18:48:34.185Z,96738.84
2022-11-30T18:51:10.920Z,96739.22
2022-11-30T18:53:38.446Z,96741.66
2022-11-30T18:56:10.915Z,96749.69
2022-11-30T18:58:38.449Z,96747.53
2022-11-30T19:01:10.409Z,96745.72
2022-11-30T19:03:38.287Z,96743.44
2022-11-30T19:06:09.223Z,96754.53
2022-11-30T19:08:38.018Z,96749.59
2022-11-30T19:11:07.637Z,96744.84
2022-11-30T19:13:35.403Z,96737.34
2022-11-30T19:16:04.587Z,96745.38
2022-11-30T19:18:32.446Z,96748.31
2022-11-30T19:21:00.182Z,96752.63
2022-11-30T19:23:29.077Z,96744.72
2022-11-30T19:26:01.491Z,96746.66
2022-11-30T19:28:29.972Z,96746.06
2022-11-30T19:30:57.970Z,96743.03
2022-11-30T19:33:26.189Z,96750.66
2022-11-30T19:35:54.041Z,96748.25
2022-11-30T19:38:21.572Z,96747.94
2022-11-30T19:40:50.454Z,96745.47
2022-11-30T19:43:17.992Z,96748.84
2022-11-30T19:45:45.625Z,96749.28
2022-11-30T19:48:13.189Z,96742.28
2022-11-30T19:50:40.737Z,96751.59
2022-11-30T19:53:08.273Z,96747.75
2022-11-30T19:55:38.908Z,96744.56
2022-11-30T19:58:07.812Z,96752.25
2022-11-30T20:00:35.356Z,96746.91
2022-11-30T20:03:09.920Z,96745.56
2022-11-30T20:05:37.859Z,96744.34
2022-11-30T20:08:06.172Z,96745.72
2022-11-30T20:10:33.779Z,96747.53
2022-11-30T20:13:01.386Z,96748.22
2022-11-30T20:15:30.289Z,96744.28
2022-11-30T20:17:57.882Z,96750.25
2022-11-30T20:20:25.484Z,96752.09
2022-11-30T20:22:53.040Z,96744.41
2022-11-30T20:25:21.119Z,96742.19
2022-11-30T20:27:49.715Z,96753.91
2022-11-30T20:30:17.653Z,96751.78
2022-11-30T20:32:46.535Z,96761.25
2022-11-30T20:35:14.082Z,96759.88
2022-11-30T20:37:41.646Z,96755.34
2022-11-30T20:40:10.634Z,96751.38
2022-11-30T20:42:38.207Z,96752.25
2022-11-30T20:45:06.630Z,96751.25
2022-11-30T20:47:35.062Z,96758.09
2022-11-30T20:50:06.681Z,96757.47
2022-11-30T20:52:35.139Z,96752.44
2022-11-30T20:55:02.658Z,96755.66
2022-11-30T20:57:30.185Z,96760.91
2022-11-30T20:59:57.691Z,96757.97
2022-11-30T21:02:25.265Z,96762.13
2022-11-30T21:04:52.928Z,96758.94
2022-11-30T21:07:21.843Z,96768.53
2022-11-30T21:09:49.421Z,96767.19
2022-11-30T21:12:17.091Z,96766.94
2022-11-30T21:14:44.645Z,96775.84
2022-11-30T21:17:12.205Z,96763.63
2022-11-30T21:19:39.740Z,96773.56
2022-11-30T21:22:07.296Z,96771.75
2022-11-30T21:24:36.346Z,96762.09
2022-11-30T21:27:03.887Z,96772.28
2022-11-30T21:29:31.478Z,96769.13
2022-11-30T21:31:59.019Z,96770.13
2022-11-30T21:34:26.584Z,96758.47
2022-11-30T21:36:54.110Z,96763.94
2022-11-30T21:39:22.056Z,96761.59
2022-11-30T21:41:50.950Z,96766.84
2022-11-30T21:44:18.760Z,96768.03
2022-11-30T21:46:47.444Z,96772.16
2022-11-30T21:49:15.891Z,96771.13
2022-11-30T21:51:43.884Z,96771.78
2022-11-30T21:54:12.910Z,96758.66
2022-11-30T21:56:42.507Z,96762.72
2022-11-30T21:59:14.048Z,96759.06
2022-11-30T22:01:43.603Z,96758.84
2022-11-30T22:04:12.733Z,96773.22
2022-11-30T22:06:41.942Z,96766.22
2022-11-30T22:09:12.956Z,96772.63
2022-11-30T22:11:41.946Z,96769.75
2022-11-30T22:14:15.219Z,96762.97
2022-11-30T22:16:43.011Z,96766.41
2022-11-30T22:19:11.028Z,96761.50
2022-11-30T22:21:38.598Z,96756.84
2022-11-30T22:24:08.580Z,96759.00
2022-11-30T22:26:38.112Z,96761.34
2022-11-30T22:29:07.500Z,96756.53
2022-11-30T22:31:39.013Z,96757.16
2022-11-30T22:34:07.763Z,96760.00
2022-11-30T22:36:37.631Z,96768.91
2022-11-30T22:39:07.552Z,96771.34
2022-11-30T22:41:35.089Z,96768.63
2022-11-30T22:44:02.807Z,96771.34
2022-11-30T22:46:32.707Z,96761.66
2022-11-30T22:49:02.690Z,96765.78
2022-11-30T22:51:32.902Z,96771.78
2022-11-30T22:54:01.636Z,96774.09
2022-11-30T22:56:30.929Z,96763.25
2022-11-30T22:59:00.660Z,96762.59
2022-11-30T23:01:30.645Z,96768.97
2022-11-30T23:04:04.073Z,96764.13
2022-11-30T23:06:32.215Z,96749.00
2022-11-30T23:09:00.637Z,96760.59
2022-11-30T23:11:30.043Z,96757.53
2022-11-30T23:13:57.882Z,96743.50
2022-11-30T23:16:25.733Z,96747.75
2022-11-30T23:18:55.760Z,96741.22
2022-11-30T23:21:26.962Z,96747.97
2022-11-30T23:23:55.933Z,96737.53
2022-11-30T23:26:25.620Z,96737.00
2022-11-30T23:28:56.195Z,96739.28
2022-11-30T23:31:33.293Z,96734.16
2022-11-30T23:34:04.427Z,96726.19
2022-11-30T23:36:33.683Z,96717.25
2022-11-30T23:39:02.539Z,96726.97
2022-11-30T23:41:30.128Z,96724.28
2022-11-30T23:43:57.882Z,96721.84
2022-11-30T23:46:25.952Z,96731.34
2022-11-30T23:48:55.513Z,96723.91
2022-11-30T23:51:23.779Z,96731.88
2022-11-30T23:53:53.442Z,96720.03
2022-11-30T23:56:23.246Z,96718.06
2022-11-30T23:58:50.802Z,96717.72
